createdAt,value
2022-09-05T00:00:31.700Z,99925.58
2022-09-05T00:03:29.865Z,99922.59
2022-09-05T00:06:17.153Z,99919.44
2022-09-05T00:09:28.496Z,99925.75
2022-09-05T00:12:17.913Z,99922.52
2022-09-05T00:15:17.432Z,99920.95
2022-09-05T00:24:17.161Z,99921.85
2022-09-05T00:24:30.779Z,99919.02
2022-09-05T00:25:34.542Z,99919.55
2022-09-05T00:28:27.251Z,99919.48
2022-09-05T00:31:54.401Z,99916.58
2022-09-05T00:35:00.290Z,99914.28
2022-09-05T00:37:49.300Z,99918.33
2022-09-05T00:40:44.251Z,99919.14
2022-09-05T00:43:57.303Z,99920.31
2022-09-05T00:47:23.359Z,99922.85
2022-09-05T00:50:20.088Z,99925.81
2022-09-05T00:53:20.934Z,99926.83
2022-09-05T00:56:25.408Z,99924.05
2022-09-05T00:59:58.560Z,99919.98
2022-09-05T01:03:22.861Z,99916.07
2022-09-05T01:06:17.469Z,99917.69
2022-09-05T01:09:17.933Z,99924.79
2022-09-05T01:12:18.618Z,99920.78
2022-09-05T01:15:18.463Z,99921.83
2022-09-05T01:18:39.373Z,99927.34
2022-09-05T01:22:05.711Z,99925.50
2022-09-05T01:25:11.396Z,99922.89
2022-09-05T01:29:13.324Z,99923.76
2022-09-05T01:31:31.884Z,99927.27
2022-09-05T01:34:37.336Z,99926.08
2022-09-05T01:37:48.448Z,99924.65
2022-09-05T01:41:18.305Z,99929.11
2022-09-05T01:44:20.365Z,99931.54
2022-09-05T01:47:41.537Z,99934.94
2022-09-05T01:50:57.878Z,99934.16
2022-09-05T01:54:05.524Z,99934.33
2022-09-05T01:57:19.711Z,99932.14
2022-09-05T02:00:16.503Z,99930.78
2022-09-05T02:03:29.024Z,99930.23
2022-09-05T02:06:52.773Z,99931.00
2022-09-05T02:10:07.561Z,99929.06
2022-09-05T02:13:44.131Z,99932.95
2022-09-05T02:16:33.434Z,99929.05
2022-09-05T02:19:25.550Z,99932.34
2022-09-05T02:22:15.257Z,99929.69
2022-09-05T02:26:00.438Z,99927.63
2022-09-05T02:28:35.437Z,99938.55
2022-09-05T02:31:30.103Z,99936.59
2022-09-05T02:34:24.387Z,99935.59
2022-09-05T02:38:30.125Z,99939.34
2022-09-05T02:45:10.559Z,99936.04
2022-09-05T02:45:16.671Z,99939.19
2022-09-05T02:47:30.726Z,99940.86
2022-09-05T02:57:25.825Z,99940.50
2022-09-05T02:57:33.714Z,99937.82
2022-09-05T02:58:04.260Z,99933.52
2022-09-05T03:00:17.689Z,99935.16
2022-09-05T03:03:28.405Z,99937.51
2022-09-05T03:06:34.472Z,99937.61
2022-09-05T03:09:42.576Z,99937.33
2022-09-05T03:12:41.880Z,99940.13
2022-09-05T03:15:55.638Z,99946.70
2022-09-05T03:19:07.229Z,99951.21
2022-09-05T03:22:08.191Z,99952.72
2022-09-05T03:25:26.052Z,99958.34
2022-09-05T03:28:49.139Z,99959.91
2022-09-05T03:31:44.452Z,99962.29
2022-09-05T03:34:45.508Z,99962.75
2022-09-05T03:37:45.523Z,99965.05
2022-09-05T03:40:36.724Z,99968.25
2022-09-05T03:43:42.703Z,99968.40
2022-09-05T03:46:57.233Z,99963.77
2022-09-05T03:57:01.833Z,99963.04
2022-09-05T03:57:15.049Z,99963.29
2022-09-05T03:57:38.419Z,99967.65
2022-09-05T04:00:33.781Z,99967.56
2022-09-05T04:08:10.293Z,99968.84
2022-09-05T04:08:19.422Z,99977.84
2022-09-05T04:10:07.679Z,99975.34
2022-09-05T04:13:17.878Z,99971.58
2022-09-05T04:16:33.440Z,99974.96
2022-09-05T04:19:43.981Z,99976.15
2022-09-05T04:23:05.574Z,99980.52
2022-09-05T04:26:20.459Z,99982.02
2022-09-05T04:29:35.739Z,99979.58
2022-09-05T04:32:54.544Z,99978.98
2022-09-05T04:36:06.893Z,99977.80
2022-09-05T04:39:12.576Z,99979.52
2022-09-05T04:42:24.529Z,99986.28
2022-09-05T04:45:17.449Z,99990.28
2022-09-05T04:48:21.432Z,99992.73
2022-09-05T04:51:12.977Z,99999.23
2022-09-05T04:54:12.673Z,99999.70
2022-09-05T04:57:21.737Z,100003.52
2022-09-05T05:05:02.398Z,100001.60
2022-09-05T05:06:09.585Z,100004.98
2022-09-05T05:06:51.516Z,100008.33
2022-09-05T05:10:03.264Z,100011.48
2022-09-05T05:18:08.954Z,100014.14
2022-09-05T05:18:09.597Z,100014.31
2022-09-05T05:20:40.626Z,100015.40
2022-09-05T05:23:27.284Z,100015.92
2022-09-05T05:26:28.498Z,100016.31
2022-09-05T05:29:34.008Z,100017.21
2022-09-05T05:32:45.158Z,100020.59
2022-09-05T05:35:35.769Z,100022.29
2022-09-05T05:38:51.636Z,100024.20
2022-09-05T05:41:44.822Z,100029.10
2022-09-05T05:44:36.868Z,100031.52
2022-09-05T05:47:48.456Z,100031.70
2022-09-05T05:51:14.315Z,100026.05
2022-09-05T05:54:28.464Z,100025.58
2022-09-05T05:57:58.523Z,100023.20
2022-09-05T06:01:06.734Z,100022.36
2022-09-05T06:04:43.300Z,100025.18
2022-09-05T06:08:17.577Z,100031.34
2022-09-05T06:15:00.484Z,100026.80
2022-09-05T06:15:12.178Z,100030.68
2022-09-05T06:18:45.662Z,100030.98
2022-09-05T06:22:11.225Z,100031.39
2022-09-05T06:25:36.485Z,100031.46
2022-09-05T06:29:00.186Z,100036.19
2022-09-05T06:32:11.556Z,100039.66
2022-09-05T06:35:25.356Z,100039.02
2022-09-05T06:38:33.312Z,100038.11
2022-09-05T06:41:30.578Z,100040.82
2022-09-05T06:44:56.063Z,100042.81
2022-09-05T06:47:48.001Z,100044.96
2022-09-05T06:51:21.230Z,100044.13
2022-09-05T06:54:28.181Z,100047.11
2022-09-05T06:57:46.848Z,100051.92
2022-09-05T07:00:47.912Z,100056.46
2022-09-05T07:03:59.882Z,100065.91
2022-09-05T07:07:17.205Z,100065.38
2022-09-05T07:10:38.876Z,100069.42
2022-09-05T07:13:44.460Z,100067.00
2022-09-05T07:16:38.301Z,100068.27
2022-09-05T07:19:41.368Z,100065.31
2022-09-05T07:22:56.194Z,100061.67
2022-09-05T07:26:04.810Z,100066.98
2022-09-05T07:28:58.029Z,100069.30
2022-09-05T07:31:52.500Z,100072.24
2022-09-05T07:34:38.846Z,100070.11
2022-09-05T07:37:37.972Z,100069.52
2022-09-05T07:40:28.469Z,100065.05
2022-09-05T07:43:35.589Z,100065.50
2022-09-05T07:46:28.478Z,100062.39
2022-09-05T07:49:20.989Z,100063.35
2022-09-05T07:56:52.923Z,100066.16
2022-09-05T07:57:08.355Z,100068.34
2022-09-05T07:58:50.672Z,100065.41
2022-09-05T08:01:40.993Z,100063.42
2022-09-05T08:04:35.181Z,100062.75
2022-09-05T08:07:48.689Z,100063.71
2022-09-05T08:11:23.382Z,100066.48
2022-09-05T08:14:40.571Z,100068.85
2022-09-05T08:17:30.277Z,100068.93
2022-09-05T08:20:38.926Z,100067.60
2022-09-05T08:23:48.756Z,100063.27
2022-09-05T08:26:44.057Z,100058.75
2022-09-05T08:29:38.494Z,100054.63
2022-09-05T08:32:36.174Z,100051.70
2022-09-05T08:35:53.123Z,100052.23
2022-09-05T08:38:47.435Z,100053.02
2022-09-05T08:42:05.482Z,100051.35
2022-09-05T08:46:42.371Z,100045.85
2022-09-05T08:48:56.409Z,100047.60
2022-09-05T08:51:55.999Z,100046.02
2022-09-05T08:55:26.427Z,100042.88
2022-09-05T08:58:37.404Z,100040.20
2022-09-05T09:02:00.700Z,100040.25
2022-09-05T09:05:01.359Z,100038.61
2022-09-05T09:08:15.759Z,100031.09
2022-09-05T09:11:12.536Z,100029.66
2022-09-05T09:14:35.971Z,100029.19
2022-09-05T09:17:58.142Z,100032.43
2022-09-05T09:20:56.873Z,100033.50
2022-09-05T09:23:58.800Z,100028.50
2022-09-05T09:26:53.611Z,100032.25
2022-09-05T09:29:43.341Z,100030.23
2022-09-05T09:32:30.613Z,100028.60
2022-09-05T09:35:31.889Z,100027.16
2022-09-05T09:38:31.541Z,100026.63
2022-09-05T09:41:47.647Z,100020.92
2022-09-05T09:44:52.653Z,100021.48
2022-09-05T09:47:57.362Z,100025.26
2022-09-05T09:51:30.776Z,100022.33
2022-09-05T09:54:47.997Z,100015.33
2022-09-05T09:58:07.671Z,100012.60
2022-09-05T10:01:35.620Z,100009.14
2022-09-05T10:10:34.237Z,100006.90
2022-09-05T10:10:49.218Z,100003.73
2022-09-05T10:12:09.423Z,100007.79
2022-09-05T10:15:38.271Z,100006.56
2022-09-05T10:18:43.247Z,100000.22
2022-09-05T10:25:33.957Z,100004.09
2022-09-05T10:28:42.924Z,100001.96
2022-09-05T10:34:14.474Z,100000.94
2022-09-05T10:35:22.395Z,99994.66
2022-09-05T10:38:18.024Z,99992.77
2022-09-05T10:41:21.189Z,99998.23
2022-09-05T10:44:10.983Z,99992.20
2022-09-05T10:47:21.120Z,99991.93
2022-09-05T10:50:32.404Z,99992.33
2022-09-05T10:53:39.862Z,99987.83
2022-09-05T10:56:39.954Z,99980.86
2022-09-05T11:02:20.277Z,99978.55
2022-09-05T11:02:58.136Z,99983.27
2022-09-05T11:05:56.062Z,99980.91
2022-09-05T11:09:07.036Z,99986.45
2022-09-05T11:12:27.427Z,99981.88
2022-09-05T11:15:30.905Z,99981.52
2022-09-05T11:18:55.180Z,99981.83
2022-09-05T11:21:45.776Z,99977.83
2022-09-05T11:24:49.977Z,99975.06
2022-09-05T11:27:43.772Z,99969.88
2022-09-05T11:30:38.896Z,99969.86
2022-09-05T11:38:30.635Z,99964.33
2022-09-05T11:39:56.621Z,99965.64
2022-09-05T11:40:29.182Z,99965.20
2022-09-05T11:44:02.370Z,99964.07
2022-09-05T11:47:44.685Z,99962.48
2022-09-05T11:51:14.958Z,99965.73
2022-09-05T11:54:26.757Z,99965.16
2022-09-05T11:57:33.413Z,99960.80
2022-09-05T12:01:41.258Z,99955.52
2022-09-05T12:04:27.760Z,99955.19
2022-09-05T12:07:46.100Z,99953.83
2022-09-05T12:11:03.493Z,99953.61
2022-09-05T12:14:21.241Z,99953.64
2022-09-05T12:17:40.195Z,99952.79
2022-09-05T12:20:43.546Z,99943.30
2022-09-05T12:24:11.571Z,99953.90
2022-09-05T12:27:41.467Z,99947.78
2022-09-05T12:30:22.818Z,99946.91
2022-09-05T12:36:01.069Z,99946.88
2022-09-05T12:40:27.559Z,99940.37
2022-09-05T12:41:35.805Z,99940.25
2022-09-05T12:44:39.009Z,99934.77
2022-09-05T12:46:23.743Z,99934.80
2022-09-05T12:49:35.044Z,99929.66
2022-09-05T12:52:31.787Z,99927.46
2022-09-05T12:55:17.559Z,99921.84
2022-09-05T13:02:58.132Z,99923.80
2022-09-05T13:03:13.989Z,99918.64
2022-09-05T13:05:01.206Z,99912.45
2022-09-05T13:07:56.534Z,99907.33
2022-09-05T13:14:48.265Z,99907.83
2022-09-05T13:15:02.799Z,99902.70
2022-09-05T13:17:08.884Z,99904.98
2022-09-05T13:19:56.152Z,99900.86
2022-09-05T13:22:48.893Z,99899.95
2022-09-05T13:25:37.328Z,99898.90
2022-09-05T13:28:35.367Z,99900.73
2022-09-05T13:38:02.935Z,99900.42
2022-09-05T13:38:11.972Z,99904.81
2022-09-05T13:41:29.509Z,99896.68
2022-09-05T13:44:27.370Z,99901.80
2022-09-05T13:47:32.271Z,99898.05
2022-09-05T13:50:29.924Z,99892.93
2022-09-05T13:53:44.105Z,99891.02
2022-09-05T13:56:32.441Z,99888.19
2022-09-05T13:59:25.094Z,99887.08
2022-09-05T14:06:47.621Z,99877.59
2022-09-05T14:10:16.108Z,99874.77
2022-09-05T14:13:12.852Z,99871.08
2022-09-05T14:16:07.618Z,99869.35
2022-09-05T14:19:13.077Z,99869.45
2022-09-05T14:22:03.540Z,99867.89
2022-09-05T14:24:54.498Z,99867.59
2022-09-05T14:27:48.041Z,99871.94
2022-09-05T14:37:40.801Z,99865.06
2022-09-05T14:37:44.831Z,99866.47
2022-09-05T14:37:46.828Z,99861.30
2022-09-05T14:40:35.490Z,99863.14
2022-09-05T14:43:37.522Z,99856.14
2022-09-05T14:46:17.641Z,99855.87
2022-09-05T14:49:18.460Z,99851.41
2022-09-05T14:51:52.541Z,99845.55
2022-09-05T14:59:08.942Z,99838.48
2022-09-05T15:02:57.903Z,99844.83
2022-09-05T15:03:12.693Z,99845.94
2022-09-05T15:05:50.260Z,99849.94
2022-09-05T15:11:24.265Z,99852.13
2022-09-05T15:12:15.442Z,99851.83
2022-09-05T15:14:11.679Z,99855.99
2022-09-05T15:16:45.820Z,99852.48
2022-09-05T15:20:05.820Z,99851.45
2022-09-05T15:22:42.133Z,99850.36
2022-09-05T15:25:18.862Z,99850.55
2022-09-05T15:27:47.673Z,99845.42
2022-09-05T15:30:35.011Z,99846.53
2022-09-05T15:33:15.242Z,99848.76
2022-09-05T15:35:45.389Z,99848.73
2022-09-05T15:38:29.960Z,99843.80
2022-09-05T15:41:29.567Z,99849.48
2022-09-05T15:44:02.577Z,99848.29
2022-09-05T15:46:51.524Z,99854.05
2022-09-05T15:49:28.839Z,99854.00
2022-09-05T15:52:19.921Z,99855.55
2022-09-05T15:54:50.375Z,99852.73
2022-09-05T15:57:31.913Z,99850.92
2022-09-05T16:00:05.282Z,99845.27
2022-09-05T16:03:08.740Z,99842.08
2022-09-05T16:10:36.896Z,99848.41
2022-09-05T16:10:38.970Z,99851.59
2022-09-05T16:12:16.315Z,99846.99
2022-09-05T16:15:20.399Z,99843.23
2022-09-05T16:23:14.144Z,99841.52
2022-09-05T16:23:26.989Z,99836.29
2022-09-05T16:23:51.915Z,99835.91
2022-09-05T16:26:27.946Z,99840.79
2022-09-05T16:29:06.206Z,99844.38
2022-09-05T16:31:57.283Z,99842.73
2022-09-05T16:34:44.351Z,99839.83
2022-09-05T16:37:42.495Z,99841.36
2022-09-05T16:40:30.920Z,99838.27
2022-09-05T16:43:07.622Z,99831.31
2022-09-05T16:45:59.493Z,99831.79
2022-09-05T16:48:42.118Z,99828.09
2022-09-05T16:51:40.739Z,99826.35
2022-09-05T16:54:32.181Z,99821.34
2022-09-05T16:57:06.508Z,99821.16
2022-09-05T16:59:41.968Z,99820.27
2022-09-05T17:02:21.735Z,99820.50
2022-09-05T17:05:11.837Z,99820.93
2022-09-05T17:07:53.907Z,99825.67
2022-09-05T17:10:44.120Z,99824.23
2022-09-05T17:13:58.336Z,99826.09
2022-09-05T17:16:35.408Z,99824.27
2022-09-05T17:19:03.679Z,99822.30
2022-09-05T17:26:13.215Z,99825.33
2022-09-05T17:29:21.421Z,99829.02
2022-09-05T17:29:28.160Z,99831.27
2022-09-05T17:31:47.525Z,99834.02
2022-09-05T17:33:45.899Z,99832.69
2022-09-05T17:36:23.423Z,99829.94
2022-09-05T17:39:34.561Z,99830.83
2022-09-05T17:42:32.790Z,99832.11
2022-09-05T17:45:18.850Z,99827.94
2022-09-05T17:47:55.270Z,99824.75
2022-09-05T17:50:28.177Z,99822.50
2022-09-05T17:53:25.189Z,99826.48
2022-09-05T17:56:01.365Z,99822.40
2022-09-05T17:58:49.234Z,99821.09
2022-09-05T18:01:26.355Z,99825.60
2022-09-05T18:04:11.301Z,99832.59
2022-09-05T18:06:58.909Z,99832.57
2022-09-05T18:09:38.605Z,99834.77
2022-09-05T18:12:15.355Z,99833.03
2022-09-05T18:15:04.671Z,99837.71
2022-09-05T18:17:48.486Z,99835.81
2022-09-05T18:20:33.232Z,99843.00
2022-09-05T18:23:37.313Z,99845.95
2022-09-05T18:26:21.827Z,99842.67
2022-09-05T18:29:01.012Z,99842.34
2022-09-05T18:31:43.535Z,99844.19
2022-09-05T18:34:13.431Z,99842.39
2022-09-05T18:36:58.138Z,99847.20
2022-09-05T18:39:38.062Z,99843.14
2022-09-05T18:42:26.230Z,99840.45
2022-09-05T18:44:59.659Z,99840.32
2022-09-05T18:47:52.979Z,99841.75
2022-09-05T18:50:32.576Z,99836.89
2022-09-05T18:53:10.548Z,99836.25
2022-09-05T18:56:10.160Z,99839.90
2022-09-05T18:58:52.353Z,99843.31
2022-09-05T19:01:28.454Z,99842.77
2022-09-05T19:04:02.428Z,99840.00
2022-09-05T19:06:37.602Z,99843.04
2022-09-05T19:09:10.863Z,99847.49
2022-09-05T19:12:33.356Z,99850.52
2022-09-05T19:15:04.744Z,99852.52
2022-09-05T19:17:47.550Z,99859.95
2022-09-05T19:20:41.442Z,99860.88
2022-09-05T19:23:13.808Z,99863.48
2022-09-05T19:25:45.201Z,99864.61
2022-09-05T19:36:19.207Z,99863.23
2022-09-05T19:36:50.964Z,99866.83
2022-09-05T19:36:54.140Z,99862.96
2022-09-05T19:37:30.347Z,99859.70
2022-09-05T19:47:25.256Z,99859.84
2022-09-05T19:47:37.065Z,99853.80
2022-09-05T19:47:39.633Z,99854.67
2022-09-05T19:48:34.512Z,99851.91
2022-09-05T19:51:16.402Z,99849.60
2022-09-05T19:54:03.794Z,99841.44
2022-09-05T19:56:45.233Z,99839.71
2022-09-05T19:59:38.355Z,99839.11
2022-09-05T20:02:46.470Z,99840.59
2022-09-05T20:05:18.787Z,99836.55
2022-09-05T20:07:52.391Z,99837.98
2022-09-05T20:10:25.734Z,99837.56
2022-09-05T20:12:55.924Z,99833.16
2022-09-05T20:15:36.358Z,99837.73
2022-09-05T20:18:23.426Z,99839.77
2022-09-05T20:21:12.716Z,99840.21
2022-09-05T20:23:48.442Z,99841.60
2022-09-05T20:26:24.756Z,99832.63
2022-09-05T20:29:00.138Z,99836.16
2022-09-05T20:31:33.261Z,99836.86
2022-09-05T20:35:02.062Z,99837.10
2022-09-05T20:43:10.183Z,99832.32
2022-09-05T20:43:27.221Z,99833.83
2022-09-05T20:43:33.017Z,99833.59
2022-09-05T20:47:43.572Z,99834.11
2022-09-05T20:54:18.675Z,99830.23
2022-09-05T20:54:28.818Z,99827.95
2022-09-05T20:54:39.533Z,99821.45
2022-09-05T20:57:16.397Z,99822.75
2022-09-05T20:59:47.267Z,99820.33
2022-09-05T21:02:25.611Z,99815.44
2022-09-05T21:05:06.948Z,99815.08
2022-09-05T21:08:06.778Z,99817.40
2022-09-05T21:10:55.815Z,99822.42
2022-09-05T21:13:31.578Z,99819.70
2022-09-05T21:16:02.149Z,99819.62
2022-09-05T21:18:33.834Z,99820.60
2022-09-05T21:21:17.522Z,99823.67
2022-09-05T21:24:08.994Z,99825.70
2022-09-05T21:26:49.064Z,99825.46
2022-09-05T21:29:33.590Z,99826.73
2022-09-05T21:32:10.747Z,99827.54
2022-09-05T21:34:49.043Z,99831.48
2022-09-05T21:37:18.716Z,99827.61
2022-09-05T21:39:58.894Z,99827.45
2022-09-05T21:45:35.369Z,99826.40
2022-09-05T21:47:39.760Z,99822.84
2022-09-05T21:48:10.902Z,99822.29
2022-09-05T21:50:49.925Z,99820.82
2022-09-05T21:59:13.651Z,99824.46
2022-09-05T21:59:19.730Z,99829.86
2022-09-05T21:59:45.988Z,99828.88
2022-09-05T22:02:16.954Z,99824.51
2022-09-05T22:04:47.366Z,99821.87
2022-09-05T22:07:31.967Z,99818.48
2022-09-05T22:10:04.353Z,99820.25
2022-09-05T22:12:39.138Z,99819.72
2022-09-05T22:15:28.862Z,99821.98
2022-09-05T22:18:27.427Z,99823.19
2022-09-05T22:21:31.775Z,99821.77
2022-09-05T22:23:45.533Z,99823.73
2022-09-05T22:26:15.868Z,99825.48
2022-09-05T22:28:51.958Z,99818.37
2022-09-05T22:31:22.210Z,99821.04
2022-09-05T22:33:56.215Z,99821.27
2022-09-05T22:36:26.855Z,99818.15
2022-09-05T22:38:54.737Z,99813.21
2022-09-05T22:41:30.445Z,99813.19
2022-09-05T22:44:00.286Z,99809.14
2022-09-05T22:46:29.694Z,99809.48
2022-09-05T22:49:05.115Z,99809.27
2022-09-05T22:51:34.788Z,99812.94
2022-09-05T22:54:02.721Z,99813.13
2022-09-05T22:56:37.563Z,99811.12
2022-09-05T22:59:06.665Z,99810.38
2022-09-05T23:01:35.530Z,99808.37
2022-09-05T23:04:03.831Z,99805.16
2022-09-05T23:06:32.018Z,99802.92
2022-09-05T23:09:01.423Z,99799.83
2022-09-05T23:11:30.225Z,99804.27
2022-09-05T23:13:59.459Z,99801.47
2022-09-05T23:16:27.836Z,99801.89
2022-09-05T23:18:55.913Z,99800.09
2022-09-05T23:21:27.038Z,99797.21
2022-09-05T23:23:55.097Z,99801.13
2022-09-05T23:26:23.270Z,99799.77
2022-09-05T23:28:51.665Z,99801.33
2022-09-05T23:31:20.992Z,99799.74
2022-09-05T23:33:52.160Z,99800.77
2022-09-05T23:36:21.084Z,99798.42
2022-09-05T23:38:48.904Z,99796.32
2022-09-05T23:41:17.024Z,99790.44
2022-09-05T23:43:45.203Z,99788.72
2022-09-05T23:46:14.478Z,99788.39
2022-09-05T23:48:42.502Z,99790.31
2022-09-05T23:51:12.508Z,99793.66
2022-09-05T23:53:40.532Z,99796.14
2022-09-05T23:56:10.472Z,99795.15
2022-09-05T23:58:39.003Z,99787.77
